Lane City, Texas
Current Conditions -  °F | °C
As of 9:55 PM on Thursday 18 Dec 2014 (Local Time) from KARM Reporting Station
Thunderstorm Thunderstorm  
Wind Chill: 64°   Ceiling: 700
Heat Index: 64°   Visibility: 5mi
Dew Point: 62°   Wind: 10mph
Humidity: 92%   Direction: 80°E
Pressure: 30.04"   Gusts: NA
Location:  29.22°N, 96.03°W
Report Text: KARM 190355Z AUTO 08009KT 5SM VCTS BR OVC007 18/17 A3004 RMK AO2 LTG DSNT W AND NW T01800167
Loading
Personal Weather Stations






























Interactive Weather Map New forecast layout! Learn more

10-Day Weather Forecast

Advertisements
Track Severe Weather on mobile